createdAt,value
2022-09-13T00:00:42.476Z,13.20
2022-09-13T00:03:10.526Z,13.20
2022-09-13T00:05:38.538Z,13.20
2022-09-13T00:08:06.428Z,13.20
2022-09-13T00:10:38.376Z,13.10
2022-09-13T00:13:07.609Z,13.00
2022-09-13T00:15:35.536Z,12.90
2022-09-13T00:18:02.381Z,13.10
2022-09-13T00:20:30.154Z,12.90
2022-09-13T00:22:56.975Z,13.00
2022-09-13T00:25:23.820Z,13.10
2022-09-13T00:27:50.654Z,13.10
2022-09-13T00:30:17.525Z,13.10
2022-09-13T00:32:45.262Z,13.00
2022-09-13T00:35:12.016Z,12.90
2022-09-13T00:37:38.966Z,12.90
2022-09-13T00:40:06.772Z,12.90
2022-09-13T00:42:33.774Z,12.80
2022-09-13T00:45:01.939Z,12.80
2022-09-13T00:47:32.559Z,12.80
2022-09-13T00:50:22.962Z,12.80
2022-09-13T00:52:57.576Z,12.90
2022-09-13T00:55:28.220Z,12.80
2022-09-13T00:57:58.944Z,12.80
2022-09-13T01:00:25.911Z,12.80
2022-09-13T01:02:57.881Z,12.80
2022-09-13T01:05:32.060Z,12.70
2022-09-13T01:08:00.263Z,12.50
2022-09-13T01:10:28.126Z,12.40
2022-09-13T01:13:05.704Z,12.30
2022-09-13T01:15:32.443Z,12.30
2022-09-13T01:17:59.386Z,12.20
2022-09-13T01:20:43.249Z,12.20
2022-09-13T01:23:38.957Z,12.20
2022-09-13T01:26:34.485Z,12.30
2022-09-13T01:29:23.729Z,12.30
2022-09-13T01:31:59.435Z,12.30
2022-09-13T01:35:03.071Z,12.30
2022-09-13T01:38:01.974Z,12.20
2022-09-13T01:41:10.785Z,12.20
2022-09-13T01:43:40.211Z,12.30
2022-09-13T01:46:15.151Z,12.30
2022-09-13T01:49:12.075Z,12.20
2022-09-13T01:51:56.635Z,12.20
2022-09-13T01:54:57.263Z,12.20
2022-09-13T01:57:36.803Z,12.10
2022-09-13T02:00:15.830Z,12.00
2022-09-13T02:03:04.486Z,12.00
2022-09-13T02:05:44.945Z,12.10
2022-09-13T02:08:56.329Z,12.00
2022-09-13T02:11:24.297Z,11.90
2022-09-13T02:14:12.539Z,11.80
2022-09-13T02:17:04.461Z,11.90
2022-09-13T02:19:57.029Z,11.90
2022-09-13T02:22:31.123Z,11.90
2022-09-13T02:25:06.736Z,11.80
2022-09-13T02:27:35.382Z,11.90
2022-09-13T02:30:06.923Z,11.90
2022-09-13T02:32:57.003Z,11.90
2022-09-13T02:35:38.684Z,11.90
2022-09-13T02:38:10.340Z,12.00
2022-09-13T02:40:45.796Z,11.90
2022-09-13T02:43:21.766Z,11.90
2022-09-13T02:46:14.588Z,11.90
2022-09-13T02:48:54.349Z,11.90
2022-09-13T02:51:49.230Z,11.80
2022-09-13T02:54:33.830Z,11.70
2022-09-13T02:57:29.715Z,11.60
2022-09-13T02:59:56.602Z,11.70
2022-09-13T03:02:27.718Z,11.60
2022-09-13T03:04:54.542Z,11.60
2022-09-13T03:07:21.308Z,11.60
2022-09-13T03:09:55.700Z,11.50
2022-09-13T03:12:41.168Z,11.60
2022-09-13T03:15:20.711Z,11.60
2022-09-13T03:18:07.213Z,11.60
2022-09-13T03:20:50.871Z,11.50
2022-09-13T03:23:45.567Z,11.50
2022-09-13T03:26:39.944Z,11.50
2022-09-13T03:29:34.066Z,11.40
2022-09-13T03:32:26.156Z,11.50
2022-09-13T03:35:29.955Z,11.40
2022-09-13T03:38:08.157Z,11.40
2022-09-13T03:40:45.242Z,11.40
2022-09-13T03:43:28.987Z,11.40
2022-09-13T03:46:02.443Z,11.40
2022-09-13T03:48:30.190Z,11.40
2022-09-13T03:50:57.181Z,11.30
2022-09-13T03:53:27.124Z,11.30
2022-09-13T03:55:54.146Z,11.20
2022-09-13T03:58:22.546Z,11.30
2022-09-13T04:00:49.542Z,11.20
2022-09-13T04:03:16.413Z,11.20
2022-09-13T04:05:43.165Z,11.20
2022-09-13T04:08:09.890Z,11.20
2022-09-13T04:10:37.147Z,11.20
2022-09-13T04:13:04.703Z,11.30
2022-09-13T04:15:31.458Z,11.30
2022-09-13T04:17:58.507Z,11.30
2022-09-13T04:20:25.357Z,11.30
2022-09-13T04:22:53.333Z,11.30
2022-09-13T04:25:21.429Z,11.20
2022-09-13T04:27:57.849Z,11.30
2022-09-13T04:30:24.568Z,11.20
2022-09-13T04:32:51.615Z,11.20
2022-09-13T04:35:18.763Z,11.20
2022-09-13T04:37:46.121Z,11.20
2022-09-13T04:40:13.345Z,11.10
2022-09-13T04:42:40.316Z,11.00
2022-09-13T04:45:07.578Z,11.00
2022-09-13T04:47:34.608Z,11.00
2022-09-13T04:50:01.459Z,10.90
2022-09-13T04:52:28.298Z,10.90
2022-09-13T04:54:55.090Z,10.80
2022-09-13T04:57:21.805Z,10.80
2022-09-13T04:59:48.639Z,10.80
2022-09-13T05:02:15.405Z,10.90
2022-09-13T05:04:42.322Z,10.80
2022-09-13T05:07:09.280Z,10.80
2022-09-13T05:09:36.088Z,10.90
2022-09-13T05:12:03.230Z,10.90
2022-09-13T05:14:29.881Z,10.90
2022-09-13T05:16:56.625Z,11.00
2022-09-13T05:19:23.352Z,11.10
2022-09-13T05:21:50.185Z,11.20
2022-09-13T05:24:16.937Z,11.20
2022-09-13T05:26:43.666Z,11.20
2022-09-13T05:29:10.404Z,11.30
2022-09-13T05:31:40.181Z,11.30
2022-09-13T05:34:10.274Z,11.40
2022-09-13T05:36:37.796Z,11.50
2022-09-13T05:39:31.906Z,11.60
2022-09-13T05:41:52.015Z,11.60
2022-09-13T05:44:18.724Z,11.50
2022-09-13T05:46:48.726Z,11.50
2022-09-13T05:49:15.581Z,11.50
2022-09-13T05:51:42.284Z,11.60
2022-09-13T05:54:12.244Z,11.80
2022-09-13T05:56:39.189Z,11.90
2022-09-13T05:59:05.986Z,12.00
2022-09-13T06:01:32.898Z,12.10
2022-09-13T06:03:59.918Z,12.20
2022-09-13T06:06:27.150Z,12.20
2022-09-13T06:08:55.412Z,12.30
2022-09-13T06:11:23.075Z,12.50
2022-09-13T06:13:50.748Z,12.70
2022-09-13T06:16:17.921Z,12.70
2022-09-13T06:18:45.368Z,12.80
2022-09-13T06:21:18.273Z,13.00
2022-09-13T06:23:46.587Z,13.20
2022-09-13T06:26:15.635Z,13.30
2022-09-13T06:28:42.984Z,13.60
2022-09-13T06:31:15.017Z,13.80
2022-09-13T06:33:43.214Z,14.00
2022-09-13T06:36:14.272Z,14.10
2022-09-13T06:38:41.283Z,14.30
2022-09-13T06:41:13.144Z,14.50
2022-09-13T06:43:40.573Z,14.70
2022-09-13T06:46:09.905Z,14.80
2022-09-13T06:48:41.630Z,15.00
2022-09-13T06:51:11.582Z,15.10
2022-09-13T06:53:39.611Z,15.30
2022-09-13T06:56:10.657Z,15.30
2022-09-13T06:58:38.581Z,15.50
2022-09-13T07:01:06.723Z,15.70
2022-09-13T07:03:33.531Z,15.80
2022-09-13T07:06:00.199Z,15.80
2022-09-13T07:08:26.912Z,15.90
2022-09-13T07:10:57.751Z,16.00
2022-09-13T07:13:24.436Z,16.20
2022-09-13T07:15:51.213Z,16.30
2022-09-13T07:18:17.974Z,16.50
2022-09-13T07:20:44.716Z,16.60
2022-09-13T07:23:15.161Z,16.80
2022-09-13T07:25:42.095Z,16.90
2022-09-13T07:28:08.814Z,17.00
2022-09-13T07:30:35.432Z,17.10
2022-09-13T07:33:02.104Z,17.10
2022-09-13T07:35:29.010Z,17.20
2022-09-13T07:37:55.670Z,17.30
2022-09-13T07:40:22.446Z,17.20
2022-09-13T07:42:49.127Z,17.30
2022-09-13T07:45:15.938Z,17.40
2022-09-13T07:47:42.631Z,17.40
2022-09-13T07:50:09.991Z,17.50
2022-09-13T07:52:36.718Z,17.40
2022-09-13T07:55:04.004Z,17.50
2022-09-13T07:57:30.652Z,17.50
2022-09-13T07:59:57.429Z,17.60
2022-09-13T08:02:24.249Z,17.60
2022-09-13T08:04:51.013Z,17.50
2022-09-13T08:07:17.713Z,17.60
2022-09-13T08:09:44.412Z,17.70
2022-09-13T08:12:11.104Z,17.70
2022-09-13T08:14:37.779Z,17.70
2022-09-13T08:17:04.525Z,17.80
2022-09-13T08:19:31.189Z,17.90
2022-09-13T08:21:57.928Z,18.00
2022-09-13T08:24:24.734Z,18.10
2022-09-13T08:26:54.531Z,18.30
2022-09-13T08:29:21.292Z,18.40
2022-09-13T08:31:48.068Z,18.60
2022-09-13T08:34:17.592Z,18.70
2022-09-13T08:36:44.695Z,18.90
2022-09-13T08:39:12.325Z,19.10
2022-09-13T08:41:41.749Z,19.30
2022-09-13T08:44:23.349Z,19.40
2022-09-13T08:46:50.700Z,19.50
2022-09-13T08:49:40.445Z,19.80
2022-09-13T08:52:29.855Z,19.80
2022-09-13T08:54:58.548Z,20.00
2022-09-13T08:57:42.166Z,20.20
2022-09-13T09:00:21.948Z,20.40
2022-09-13T09:03:26.017Z,20.60
2022-09-13T09:05:52.853Z,20.60
2022-09-13T09:08:28.921Z,20.90
2022-09-13T09:10:58.334Z,21.20
2022-09-13T09:14:03.770Z,21.40
2022-09-13T09:16:38.033Z,21.60
2022-09-13T09:19:14.547Z,21.90
2022-09-13T09:21:42.921Z,22.00
2022-09-13T09:24:22.996Z,22.00
2022-09-13T09:26:50.048Z,21.90
2022-09-13T09:29:37.756Z,22.10
2022-09-13T09:32:35.228Z,22.30
2022-09-13T09:35:35.982Z,22.40
2022-09-13T09:38:11.507Z,22.50
2022-09-13T09:40:38.427Z,22.60
2022-09-13T09:43:22.251Z,22.90
2022-09-13T09:45:50.338Z,23.10
2022-09-13T09:48:22.261Z,23.10
2022-09-13T09:50:52.963Z,23.30
2022-09-13T09:53:28.158Z,23.30
2022-09-13T09:56:11.958Z,23.40
2022-09-13T09:58:50.248Z,23.50
2022-09-13T10:01:31.934Z,23.50
2022-09-13T10:04:03.034Z,23.60
2022-09-13T10:06:30.941Z,23.70
2022-09-13T10:08:59.828Z,23.70
2022-09-13T10:11:59.848Z,23.80
2022-09-13T10:14:34.324Z,24.10
2022-09-13T10:17:25.682Z,24.20
2022-09-13T10:19:58.258Z,24.40
2022-09-13T10:22:26.444Z,24.50
2022-09-13T10:24:53.467Z,24.70
2022-09-13T10:27:34.719Z,24.80
2022-09-13T10:30:03.467Z,24.90
2022-09-13T10:32:31.208Z,24.90
2022-09-13T10:35:15.619Z,25.00
2022-09-13T10:37:44.232Z,25.00
2022-09-13T10:40:19.766Z,25.20
2022-09-13T10:42:58.733Z,25.10
2022-09-13T10:45:28.826Z,25.30
2022-09-13T10:48:06.327Z,25.50
2022-09-13T10:50:33.093Z,25.60
2022-09-13T10:53:01.228Z,25.80
2022-09-13T10:55:33.030Z,25.60
2022-09-13T10:58:02.625Z,25.70
2022-09-13T11:00:39.577Z,25.70
2022-09-13T11:03:32.551Z,25.50
2022-09-13T11:06:30.293Z,25.30
2022-09-13T11:09:12.190Z,25.30
2022-09-13T11:11:52.957Z,25.10
2022-09-13T11:14:22.582Z,25.00
2022-09-13T11:16:52.051Z,24.80
2022-09-13T11:19:36.535Z,24.60
2022-09-13T11:22:40.644Z,24.50
2022-09-13T11:25:30.016Z,24.60
2022-09-13T11:28:08.346Z,24.60
2022-09-13T11:30:58.526Z,24.60
2022-09-13T11:33:44.608Z,24.60
2022-09-13T11:36:37.770Z,24.60
2022-09-13T11:39:36.959Z,24.80
2022-09-13T11:42:17.762Z,24.90
2022-09-13T11:45:08.918Z,25.20
2022-09-13T11:48:12.420Z,25.30
2022-09-13T11:51:07.705Z,25.40
2022-09-13T11:53:46.272Z,25.70
2022-09-13T11:56:29.382Z,26.00
2022-09-13T11:59:22.501Z,26.30
2022-09-13T12:02:00.300Z,26.50
2022-09-13T12:05:18.373Z,26.80
2022-09-13T12:07:49.799Z,27.00
2022-09-13T12:10:25.196Z,26.60
2022-09-13T12:12:53.253Z,26.40
2022-09-13T12:15:36.232Z,26.50
2022-09-13T12:18:15.096Z,26.50
2022-09-13T12:21:03.292Z,26.30
2022-09-13T12:23:43.343Z,26.20
2022-09-13T12:26:20.832Z,26.20
2022-09-13T12:29:01.518Z,26.40
2022-09-13T12:31:31.294Z,26.50
2022-09-13T12:33:59.333Z,26.90
2022-09-13T12:37:03.335Z,27.20
2022-09-13T12:39:51.773Z,27.40
2022-09-13T12:42:34.764Z,27.50
2022-09-13T12:45:29.270Z,27.80
2022-09-13T12:48:23.949Z,27.70
2022-09-13T12:50:56.718Z,27.80
2022-09-13T12:53:49.559Z,27.60
2022-09-13T12:56:16.271Z,27.50
2022-09-13T12:59:01.019Z,27.40
2022-09-13T13:01:30.180Z,27.80
2022-09-13T13:04:02.851Z,27.90
2022-09-13T13:06:41.160Z,27.90
2022-09-13T13:09:28.489Z,27.90
2022-09-13T13:11:56.976Z,27.80
2022-09-13T13:14:38.599Z,28.00
2022-09-13T13:17:44.147Z,27.80
2022-09-13T13:20:38.787Z,28.00
2022-09-13T13:23:27.290Z,27.90
2022-09-13T13:26:05.900Z,28.00
2022-09-13T13:29:20.409Z,27.80
2022-09-13T13:32:09.228Z,28.10
2022-09-13T13:34:48.669Z,28.20
2022-09-13T13:37:15.353Z,28.10
2022-09-13T13:39:47.582Z,28.00
2022-09-13T13:42:28.177Z,28.00
2022-09-13T13:44:54.877Z,27.80
2022-09-13T13:47:21.547Z,27.60
2022-09-13T13:50:15.015Z,27.50
2022-09-13T13:52:47.812Z,27.40
2022-09-13T13:55:41.211Z,27.30
2022-09-13T13:58:07.848Z,27.20
2022-09-13T14:00:36.737Z,27.00
2022-09-13T14:03:23.759Z,26.90
2022-09-13T14:05:57.714Z,26.90
2022-09-13T14:08:55.224Z,27.00
2022-09-13T14:11:59.849Z,26.90
2022-09-13T14:14:46.210Z,27.00
2022-09-13T14:17:24.946Z,26.80
2022-09-13T14:19:54.788Z,26.80
2022-09-13T14:22:26.296Z,26.90
2022-09-13T14:24:58.671Z,27.00
2022-09-13T14:27:33.941Z,27.10
2022-09-13T14:30:25.673Z,27.00
2022-09-13T14:32:57.433Z,27.00
2022-09-13T14:35:30.005Z,27.10
2022-09-13T14:38:10.275Z,27.00
2022-09-13T14:40:37.327Z,26.60
2022-09-13T14:43:15.670Z,26.60
2022-09-13T14:45:45.147Z,26.50
2022-09-13T14:48:36.699Z,26.60
2022-09-13T14:51:16.705Z,26.60
2022-09-13T14:53:45.639Z,26.60
2022-09-13T14:56:24.465Z,26.50
2022-09-13T14:58:55.909Z,26.30
2022-09-13T15:01:31.631Z,26.20
2022-09-13T15:04:00.094Z,26.10
2022-09-13T15:06:33.283Z,26.10
2022-09-13T15:09:10.506Z,26.00
2022-09-13T15:11:53.960Z,26.00
2022-09-13T15:14:46.740Z,26.00
2022-09-13T15:17:14.186Z,25.80
2022-09-13T15:19:51.155Z,25.80
2022-09-13T15:22:34.399Z,25.80
2022-09-13T15:25:02.696Z,25.80
2022-09-13T15:27:43.421Z,25.80
2022-09-13T15:30:31.227Z,25.70
2022-09-13T15:33:24.336Z,25.50
2022-09-13T15:35:52.199Z,25.50
2022-09-13T15:38:30.871Z,25.50
2022-09-13T15:41:18.143Z,25.40
2022-09-13T15:43:47.865Z,25.40
2022-09-13T15:46:16.660Z,25.20
2022-09-13T15:48:59.410Z,25.20
2022-09-13T15:51:26.500Z,25.10
2022-09-13T15:53:54.426Z,25.10
2022-09-13T15:56:35.235Z,25.10
2022-09-13T15:59:01.919Z,25.10
2022-09-13T16:01:28.757Z,25.10
2022-09-13T16:03:55.497Z,25.00
2022-09-13T16:06:24.685Z,25.00
2022-09-13T16:08:51.598Z,24.90
2022-09-13T16:11:18.273Z,24.80
2022-09-13T16:13:44.979Z,24.80
2022-09-13T16:16:14.019Z,24.80
2022-09-13T16:18:40.876Z,24.70
2022-09-13T16:21:07.554Z,24.60
2022-09-13T16:23:34.398Z,24.50
2022-09-13T16:26:01.580Z,24.50
2022-09-13T16:28:28.525Z,24.40
2022-09-13T16:30:55.273Z,24.30
2022-09-13T16:33:22.271Z,24.20
2022-09-13T16:35:49.047Z,24.20
2022-09-13T16:38:15.793Z,24.10
2022-09-13T16:40:44.083Z,24.10
2022-09-13T16:43:10.905Z,24.00
2022-09-13T16:45:42.145Z,23.90
2022-09-13T16:48:09.150Z,23.80
2022-09-13T16:50:39.270Z,23.70
2022-09-13T16:53:06.055Z,23.70
2022-09-13T16:55:32.791Z,23.70
2022-09-13T16:57:59.691Z,23.60
2022-09-13T17:00:26.378Z,23.60
2022-09-13T17:02:53.304Z,23.50
2022-09-13T17:05:20.155Z,23.40
2022-09-13T17:07:46.896Z,23.40
2022-09-13T17:10:13.695Z,23.30
2022-09-13T17:12:40.850Z,23.30
2022-09-13T17:15:08.101Z,23.20
2022-09-13T17:17:34.994Z,23.10
2022-09-13T17:20:04.787Z,23.10
2022-09-13T17:22:31.540Z,22.90
2022-09-13T17:24:58.245Z,22.80
2022-09-13T17:27:25.004Z,22.70
2022-09-13T17:29:51.750Z,22.70
2022-09-13T17:32:18.484Z,22.70
2022-09-13T17:34:45.329Z,22.60
2022-09-13T17:37:12.134Z,22.50
2022-09-13T17:39:38.916Z,22.40
2022-09-13T17:42:05.862Z,22.40
2022-09-13T17:44:32.603Z,22.30
2022-09-13T17:46:59.345Z,22.30
2022-09-13T17:49:26.112Z,22.20
2022-09-13T17:51:52.832Z,22.20
2022-09-13T17:54:19.660Z,22.10
2022-09-13T17:56:46.379Z,21.90
2022-09-13T17:59:18.730Z,21.90
2022-09-13T18:01:51.312Z,21.80
2022-09-13T18:04:20.938Z,21.80
2022-09-13T18:06:48.363Z,21.70
2022-09-13T18:09:15.921Z,21.60
2022-09-13T18:11:43.100Z,21.50
2022-09-13T18:14:17.340Z,21.50
2022-09-13T18:16:44.502Z,21.40
2022-09-13T18:19:11.714Z,21.30
2022-09-13T18:21:38.728Z,21.30
2022-09-13T18:24:05.705Z,21.20
2022-09-13T18:26:32.954Z,21.10
2022-09-13T18:29:09.629Z,21.00
2022-09-13T18:31:37.232Z,21.00
2022-09-13T18:34:06.904Z,21.00
2022-09-13T18:36:34.459Z,20.90
2022-09-13T18:39:01.729Z,20.90
2022-09-13T18:41:38.492Z,20.80
2022-09-13T18:44:05.225Z,20.80
2022-09-13T18:46:33.785Z,20.80
2022-09-13T18:49:01.394Z,20.70
2022-09-13T18:51:30.684Z,20.70
2022-09-13T18:53:58.621Z,20.70
2022-09-13T18:56:26.664Z,20.60
2022-09-13T18:58:54.857Z,20.60
2022-09-13T19:01:33.323Z,20.50
2022-09-13T19:04:03.160Z,20.50
2022-09-13T19:06:36.053Z,20.40
2022-09-13T19:09:04.219Z,20.30
2022-09-13T19:11:57.215Z,20.30
2022-09-13T19:14:26.305Z,20.30
2022-09-13T19:16:55.322Z,20.30
2022-09-13T19:19:22.544Z,20.20
2022-09-13T19:21:49.488Z,20.20
2022-09-13T19:24:19.384Z,20.20
2022-09-13T19:26:49.345Z,20.20
2022-09-13T19:29:19.331Z,20.20
2022-09-13T19:31:47.792Z,20.30
2022-09-13T19:34:15.574Z,20.30
2022-09-13T19:36:42.264Z,20.30
2022-09-13T19:39:09.329Z,20.20
2022-09-13T19:41:37.716Z,20.20
2022-09-13T19:44:05.210Z,20.10
2022-09-13T19:46:34.661Z,20.10
2022-09-13T19:49:02.488Z,20.00
2022-09-13T19:51:34.907Z,19.90
2022-09-13T19:54:01.982Z,19.80
2022-09-13T19:56:31.429Z,19.80
2022-09-13T19:58:58.909Z,19.80
2022-09-13T20:01:28.317Z,19.80
2022-09-13T20:04:00.790Z,19.80
2022-09-13T20:06:29.312Z,19.70
2022-09-13T20:09:00.673Z,19.60
2022-09-13T20:11:27.996Z,19.50
2022-09-13T20:13:58.458Z,19.50
2022-09-13T20:16:28.333Z,19.40
2022-09-13T20:18:58.655Z,19.40
2022-09-13T20:21:27.450Z,19.30
2022-09-13T20:23:56.443Z,19.30
2022-09-13T20:26:25.411Z,19.30
2022-09-13T20:28:57.809Z,19.30
2022-09-13T20:31:24.807Z,19.20
2022-09-13T20:33:58.484Z,19.20
2022-09-13T20:36:27.601Z,19.10
2022-09-13T20:38:55.223Z,19.10
2022-09-13T20:41:25.202Z,19.00
2022-09-13T20:43:52.888Z,18.90
2022-09-13T20:46:21.522Z,18.90
2022-09-13T20:48:48.998Z,18.90
2022-09-13T20:51:17.910Z,19.00
2022-09-13T20:53:47.525Z,18.90
2022-09-13T20:56:17.452Z,18.90
2022-09-13T20:58:45.819Z,18.90
2022-09-13T21:01:18.438Z,18.80
2022-09-13T21:03:45.647Z,18.90
2022-09-13T21:06:14.909Z,18.80
2022-09-13T21:08:42.396Z,18.90
2022-09-13T21:11:18.252Z,18.90
2022-09-13T21:13:48.342Z,18.60
2022-09-13T21:16:18.222Z,18.80
2022-09-13T21:18:45.647Z,18.80
2022-09-13T21:21:29.479Z,18.80
2022-09-13T21:23:56.830Z,18.80
2022-09-13T21:26:26.018Z,18.80
2022-09-13T21:28:53.309Z,18.90
2022-09-13T21:31:25.450Z,18.90
2022-09-13T21:34:01.828Z,18.90
2022-09-13T21:36:29.567Z,18.80
2022-09-13T21:38:59.391Z,18.70
2022-09-13T21:41:27.453Z,18.60
2022-09-13T21:43:54.711Z,18.50
2022-09-13T21:46:23.944Z,18.50
2022-09-13T21:48:54.258Z,18.50
2022-09-13T21:51:30.985Z,18.60
2022-09-13T21:53:59.908Z,18.60
2022-09-13T21:56:30.117Z,18.60
2022-09-13T21:59:01.930Z,18.60
2022-09-13T22:01:37.071Z,18.70
2022-09-13T22:04:04.072Z,18.60
2022-09-13T22:06:34.057Z,18.60
2022-09-13T22:09:05.015Z,18.60
2022-09-13T22:11:34.214Z,18.70
2022-09-13T22:14:01.464Z,18.60
2022-09-13T22:16:34.072Z,18.70
2022-09-13T22:19:12.560Z,18.70
2022-09-13T22:21:43.278Z,18.70
2022-09-13T22:24:18.021Z,18.80
2022-09-13T22:26:48.531Z,18.70
2022-09-13T22:29:16.320Z,18.70
2022-09-13T22:31:45.903Z,18.70
2022-09-13T22:34:15.843Z,18.60
2022-09-13T22:36:42.787Z,18.60
2022-09-13T22:39:14.860Z,18.60
2022-09-13T22:41:41.783Z,18.60
2022-09-13T22:44:08.929Z,18.60
2022-09-13T22:46:39.066Z,18.50
2022-09-13T22:49:06.681Z,18.50
2022-09-13T22:51:33.849Z,18.50
2022-09-13T22:54:06.231Z,18.50
2022-09-13T22:56:35.632Z,18.40
2022-09-13T22:59:06.061Z,18.50
2022-09-13T23:01:36.985Z,18.40
2022-09-13T23:04:04.227Z,18.40
2022-09-13T23:06:32.697Z,18.50
2022-09-13T23:09:01.797Z,18.50
2022-09-13T23:11:34.219Z,18.50
2022-09-13T23:14:03.915Z,18.50
2022-09-13T23:16:43.402Z,18.50
2022-09-13T23:19:11.685Z,18.50
2022-09-13T23:21:41.914Z,18.50
2022-09-13T23:24:16.060Z,18.50
2022-09-13T23:26:43.688Z,18.50
2022-09-13T23:29:16.376Z,18.50
2022-09-13T23:31:43.823Z,18.50
2022-09-13T23:34:12.107Z,18.40
2022-09-13T23:36:42.653Z,18.40
2022-09-13T23:39:13.418Z,18.30
2022-09-13T23:41:40.325Z,18.30
2022-09-13T23:44:07.141Z,18.20
2022-09-13T23:46:34.284Z,18.30
2022-09-13T23:49:01.241Z,18.30
2022-09-13T23:51:28.491Z,18.30
2022-09-13T23:53:57.082Z,18.40
2022-09-13T23:56:29.536Z,18.40
2022-09-13T23:59:01.122Z,18.30
